createdAt,value
2024-01-01T00:00:03.504Z,6.42
2024-01-01T00:05:02.829Z,6.65
2024-01-01T00:10:02.452Z,6.86
2024-01-01T00:15:02.268Z,6.83
2024-01-01T00:20:02.988Z,6.8
2024-01-01T00:25:02.635Z,6.74
2024-01-01T00:30:02.489Z,6.67
2024-01-01T00:35:02.261Z,6.7
2024-01-01T00:40:05.058Z,6.69
2024-01-01T00:45:02.528Z,6.79
2024-01-01T00:50:03.134Z,6.7
2024-01-01T00:55:03.656Z,6.94
2024-01-01T01:00:02.831Z,7.12
2024-01-01T01:05:05.769Z,6.93
2024-01-01T01:10:02.503Z,6.89
2024-01-01T01:15:02.327Z,6.74
2024-01-01T01:20:04.269Z,6.72
2024-01-01T01:25:03.204Z,6.76
2024-01-01T01:30:02.846Z,6.66
2024-01-01T01:35:02.670Z,6.5
2024-01-01T01:40:02.245Z,6.52
2024-01-01T01:45:03.081Z,6.54
2024-01-01T01:50:02.747Z,6.47
2024-01-01T01:55:04.016Z,6.5
2024-01-01T02:00:03.178Z,6.52
2024-01-01T02:05:02.968Z,6.42
2024-01-01T02:10:02.909Z,6.37
2024-01-01T02:15:02.391Z,6.3
2024-01-01T02:20:07.967Z,6.32
2024-01-01T02:25:02.717Z,6.24
2024-01-01T02:30:02.622Z,6.09
2024-01-01T02:35:02.336Z,6.2
2024-01-01T02:40:02.301Z,6.11
2024-01-01T02:45:03.085Z,6.17
2024-01-01T02:50:02.790Z,6.18
2024-01-01T02:55:03.348Z,6.15
2024-01-01T03:00:02.284Z,6.06
2024-01-01T03:05:02.285Z,5.91
2024-01-01T03:10:03.120Z,5.99
2024-01-01T03:15:02.680Z,5.91
2024-01-01T03:20:02.397Z,5.96
2024-01-01T03:25:03.055Z,6.02
2024-01-01T03:30:02.885Z,5.95
2024-01-01T03:35:02.805Z,5.96
2024-01-01T03:40:02.508Z,5.89
2024-01-01T03:45:02.318Z,6.05
2024-01-01T03:50:02.390Z,6.17
2024-01-01T03:55:03.911Z,5.94
2024-01-01T04:00:04.309Z,5.88
2024-01-01T04:05:02.626Z,5.78
2024-01-01T04:10:02.671Z,5.89
2024-01-01T04:15:02.542Z,5.91
2024-01-01T04:20:02.226Z,5.77
2024-01-01T04:25:03.116Z,5.65
2024-01-01T04:30:02.918Z,5.58
2024-01-01T04:35:02.524Z,5.78
2024-01-01T04:40:02.351Z,5.86
2024-01-01T04:45:03.128Z,5.82
2024-01-01T04:50:03.022Z,5.85
2024-01-01T04:55:03.762Z,5.84
2024-01-01T05:00:02.400Z,5.91
2024-01-01T05:05:03.057Z,5.93
2024-01-01T05:10:02.690Z,5.93
2024-01-01T05:15:02.466Z,6.04
2024-01-01T05:20:02.436Z,6.05
2024-01-01T05:25:03.385Z,6.01
2024-01-01T05:30:02.977Z,6.01
2024-01-01T05:35:02.680Z,5.8
2024-01-01T05:40:02.279Z,5.78
2024-01-01T05:45:03.117Z,5.8
2024-01-01T05:50:02.961Z,5.73
2024-01-01T05:55:03.259Z,5.9
2024-01-01T06:00:02.532Z,5.91
2024-01-01T06:05:03.185Z,6.11
2024-01-01T06:10:02.781Z,6
2024-01-01T06:15:02.500Z,6.11
2024-01-01T06:20:02.221Z,6.17
2024-01-01T06:25:02.890Z,6.04
2024-01-01T06:30:02.753Z,5.95
2024-01-01T06:35:02.398Z,5.9
2024-01-01T06:40:02.211Z,5.92
2024-01-01T06:45:02.898Z,5.96
2024-01-01T06:50:02.616Z,6.02
2024-01-01T06:55:03.401Z,5.93
2024-01-01T07:00:02.971Z,5.91
2024-01-01T07:05:02.782Z,5.7
2024-01-01T07:10:02.335Z,5.72
2024-01-01T07:15:02.374Z,5.71
2024-01-01T07:20:03.047Z,5.62
2024-01-01T07:25:02.879Z,5.65
2024-01-01T07:30:02.842Z,5.73
2024-01-01T07:35:02.903Z,5.69
2024-01-01T07:45:03.035Z,5.79
2024-01-01T07:50:03.126Z,5.64
2024-01-01T07:55:03.921Z,5.69
2024-01-01T08:00:02.880Z,5.84
2024-01-01T08:05:02.564Z,5.84
2024-01-01T08:10:02.502Z,5.84
2024-01-01T08:15:03.296Z,5.89
2024-01-01T08:20:02.918Z,5.9
2024-01-01T08:25:02.670Z,5.91
2024-01-01T08:30:02.533Z,6.01
2024-01-01T08:35:03.106Z,5.91
2024-01-01T08:40:02.745Z,5.92
2024-01-01T08:45:02.510Z,5.93
2024-01-01T08:55:03.403Z,5.88
2024-01-01T09:00:02.486Z,6.01
2024-01-01T09:05:03.239Z,5.99
2024-01-01T09:10:02.756Z,6.05
2024-01-01T09:15:02.619Z,6.07
2024-01-01T09:20:02.438Z,6.47
2024-01-01T09:25:03.046Z,6.4
2024-01-01T09:30:02.903Z,6.69
2024-01-01T09:35:02.578Z,7.07
2024-01-01T09:40:02.254Z,7
2024-01-01T09:45:04.710Z,6.98
2024-01-01T09:50:02.475Z,7.06
2024-01-01T09:55:04.369Z,7.11
2024-01-01T10:00:02.870Z,7.13
2024-01-01T10:05:02.589Z,7.04
2024-01-01T10:10:03.999Z,6.92
2024-01-01T10:15:04.717Z,6.88
2024-01-01T10:20:02.552Z,7.03
2024-01-01T10:25:03.175Z,6.94
2024-01-01T10:30:02.832Z,6.84
2024-01-01T10:35:02.824Z,6.9
2024-01-01T10:40:02.472Z,6.9
2024-01-01T10:45:02.256Z,7
2024-01-01T10:50:02.961Z,7.03
2024-01-01T10:55:03.613Z,6.94
2024-01-01T11:00:02.332Z,7.1
2024-01-01T11:05:03.068Z,7.11
2024-01-01T11:10:05.494Z,7.21
2024-01-01T11:15:02.864Z,7.32
2024-01-01T11:20:02.617Z,7.45
2024-01-01T11:25:02.446Z,7.48
2024-01-01T11:30:02.262Z,7.52
2024-01-01T11:35:02.920Z,7.56
2024-01-01T11:40:02.714Z,7.62
2024-01-01T11:45:02.401Z,7.52
2024-01-01T11:50:03.136Z,7.61
2024-01-01T11:55:03.441Z,7.73
2024-01-01T12:00:02.569Z,8.07
2024-01-01T12:05:02.342Z,8.11
2024-01-01T12:10:02.940Z,8.01
2024-01-01T12:15:02.670Z,7.91
2024-01-01T12:20:02.470Z,7.99
2024-01-01T12:25:03.113Z,8.02
2024-01-01T12:30:02.978Z,7.91
2024-01-01T12:35:02.639Z,7.98
2024-01-01T12:40:02.272Z,7.97
2024-01-01T12:45:03.102Z,7.97
2024-01-01T12:50:02.796Z,7.92
2024-01-01T12:55:04.003Z,7.84
2024-01-01T13:00:03.080Z,7.88
2024-01-01T13:10:02.397Z,7.94
2024-01-01T13:15:03.193Z,8.1
2024-01-01T13:20:02.747Z,8.01
2024-01-01T13:25:02.380Z,7.98
2024-01-01T13:30:03.091Z,8.09
2024-01-01T13:35:02.879Z,7.72
2024-01-01T13:40:02.536Z,7.83
2024-01-01T13:45:02.262Z,7.91
2024-01-01T13:50:02.944Z,7.79
2024-01-01T13:55:03.625Z,7.87
2024-01-01T14:00:02.386Z,7.76
2024-01-01T14:05:03.079Z,7.73
2024-01-01T14:10:03.049Z,7.57
2024-01-01T14:15:02.932Z,7.64
2024-01-01T14:20:03.112Z,7.54
2024-01-01T14:25:02.853Z,7.48
2024-01-01T14:30:02.240Z,7.57
2024-01-01T14:35:02.898Z,7.48
2024-01-01T14:40:02.751Z,7.46
2024-01-01T14:45:02.652Z,7.52
2024-01-01T14:50:02.316Z,7.48
2024-01-01T14:55:04.463Z,7.37
2024-01-01T15:00:02.892Z,7.3
2024-01-01T15:05:02.644Z,7.29
2024-01-01T15:10:02.478Z,7.37
2024-01-01T15:15:03.201Z,7.41
2024-01-01T15:20:02.802Z,7.26
2024-01-01T15:25:02.689Z,7.22
2024-01-01T15:30:03.174Z,7.05
2024-01-01T15:35:02.864Z,6.89
2024-01-01T15:40:02.618Z,6.95
2024-01-01T15:50:03.312Z,7.02
2024-01-01T15:55:04.128Z,7.03
2024-01-01T16:00:02.626Z,6.82
2024-01-01T16:05:02.314Z,6.69
2024-01-01T16:10:02.960Z,6.7
2024-01-01T16:15:02.723Z,6.72
2024-01-01T16:20:02.728Z,6.8
2024-01-01T16:25:02.177Z,6.67
2024-01-01T16:30:03.079Z,6.64
2024-01-01T16:35:02.872Z,6.76
2024-01-01T16:40:02.530Z,6.74
2024-01-01T16:45:02.322Z,6.78
2024-01-01T16:50:02.272Z,6.8
2024-01-01T16:55:04.507Z,6.83
2024-01-01T17:00:02.708Z,6.79
2024-01-01T17:05:02.533Z,6.78
2024-01-01T17:10:02.214Z,6.8
2024-01-01T17:15:03.190Z,6.76
2024-01-01T17:20:02.965Z,6.66
2024-01-01T17:25:02.648Z,6.63
2024-01-01T17:30:02.429Z,6.61
2024-01-01T17:35:03.167Z,6.64
2024-01-01T17:40:02.837Z,6.63
2024-01-01T17:45:02.531Z,6.57
2024-01-01T17:50:02.272Z,6.5
2024-01-01T17:55:04.200Z,6.43
2024-01-01T18:00:02.538Z,6.36
2024-01-01T18:05:02.286Z,6.33
2024-01-01T18:10:03.009Z,6.2
2024-01-01T18:15:02.710Z,6.17
2024-01-01T18:20:02.632Z,6.18
2024-01-01T18:25:02.253Z,6.08
2024-01-01T18:30:02.996Z,6.05
2024-01-01T18:35:03.461Z,5.99
2024-01-01T18:45:02.548Z,5.99
2024-01-01T18:50:02.427Z,5.96
2024-01-01T18:55:03.942Z,6.11
2024-01-01T19:00:02.772Z,6.07
2024-01-01T19:05:02.678Z,6.06
2024-01-01T19:10:02.320Z,6.03
2024-01-01T19:15:04.484Z,5.98
2024-01-01T19:20:02.825Z,5.96
2024-01-01T19:25:02.549Z,6.01
2024-01-01T19:30:02.213Z,6.01
2024-01-01T19:35:02.908Z,6.01
2024-01-01T19:40:02.609Z,6.01
2024-01-01T19:45:02.343Z,6.09
2024-01-01T19:50:03.205Z,6.1
2024-01-01T19:55:03.634Z,5.98
2024-01-01T20:00:02.564Z,5.84
2024-01-01T20:05:02.322Z,5.8
2024-01-01T20:10:02.947Z,5.79
2024-01-01T20:15:02.600Z,5.74
2024-01-01T20:20:02.395Z,5.69
2024-01-01T20:25:03.032Z,5.67
2024-01-01T20:30:02.677Z,5.7
2024-01-01T20:35:02.627Z,5.75
2024-01-01T20:40:02.314Z,5.84
2024-01-01T20:45:03.016Z,5.81
2024-01-01T20:50:02.792Z,5.79
2024-01-01T20:55:03.680Z,5.91
2024-01-01T21:00:03.331Z,5.92
2024-01-01T21:05:03.444Z,5.99
2024-01-01T21:10:02.829Z,6.04
2024-01-01T21:15:02.548Z,6.02
2024-01-01T21:20:02.565Z,6.12
2024-01-01T21:25:02.270Z,6.07
2024-01-01T21:30:03.092Z,6.06
2024-01-01T21:35:02.815Z,6
2024-01-01T21:40:02.687Z,6.01
2024-01-01T21:45:03.108Z,5.91
2024-01-01T21:50:03.096Z,5.86
2024-01-01T21:55:03.360Z,5.84
2024-01-01T22:00:02.410Z,5.9
2024-01-01T22:05:03.127Z,5.81
2024-01-01T22:10:02.932Z,5.85
2024-01-01T22:15:02.648Z,5.86
2024-01-01T22:20:02.452Z,5.91
2024-01-01T22:25:02.238Z,5.88
2024-01-01T22:30:03.003Z,5.74
2024-01-01T22:35:02.709Z,5.72
2024-01-01T22:40:02.414Z,5.73
2024-01-01T22:45:03.101Z,5.73
2024-01-01T22:50:02.840Z,5.67
2024-01-01T22:55:03.677Z,5.6
2024-01-01T23:00:03.424Z,5.53
2024-01-01T23:05:02.278Z,5.51
2024-01-01T23:10:03.128Z,5.44
2024-01-01T23:15:02.806Z,5.38
2024-01-01T23:20:02.802Z,5.16
2024-01-01T23:25:02.235Z,5.03
2024-01-01T23:30:02.929Z,4.86
2024-01-01T23:35:02.884Z,4.88
2024-01-01T23:40:02.415Z,4.83
2024-01-01T23:45:03.156Z,4.84
2024-01-01T23:50:02.865Z,4.69
2024-01-01T23:55:03.590Z,4.71
